sensor_id;sensor_type;location;lat;lon;timestamp;P1;durP1;ratioP1;P2;durP2;ratioP2
72586;SDS011;60621;49.576;11.024;2023-06-22T00:00:05;8.57;;;5.55;;
72586;SDS011;60621;49.576;11.024;2023-06-22T00:01:13;10.88;;;6.35;;
72586;SDS011;60621;49.576;11.024;2023-06-22T00:02:15;8.70;;;5.55;;
72586;SDS011;60621;49.576;11.024;2023-06-22T00:03:18;10.25;;;6.70;;
72586;SDS011;60621;49.576;11.024;2023-06-22T00:04:20;8.85;;;5.35;;
72586;SDS011;60621;49.576;11.024;2023-06-22T00:05:22;8.73;;;5.82;;
72586;SDS011;60621;49.576;11.024;2023-06-22T00:06:23;9.85;;;5.78;;
72586;SDS011;60621;49.576;11.024;2023-06-22T00:07:25;11.50;;;5.60;;
72586;SDS011;60621;49.576;11.024;2023-06-22T00:08:27;9.68;;;6.07;;
72586;SDS011;60621;49.576;11.024;2023-06-22T00:09:28;10.63;;;6.15;;
72586;SDS011;60621;49.576;11.024;2023-06-22T00:10:30;8.30;;;5.88;;
72586;SDS011;60621;49.576;11.024;2023-06-22T00:11:33;10.02;;;5.97;;
72586;SDS011;60621;49.576;11.024;2023-06-22T00:12:35;9.73;;;5.68;;
72586;SDS011;60621;49.576;11.024;2023-06-22T00:13:37;10.10;;;6.28;;
72586;SDS011;60621;49.576;11.024;2023-06-22T00:14:38;10.00;;;5.68;;
72586;SDS011;60621;49.576;11.024;2023-06-22T00:15:40;9.23;;;5.88;;
72586;SDS011;60621;49.576;11.024;2023-06-22T00:16:43;9.75;;;5.95;;
72586;SDS011;60621;49.576;11.024;2023-06-22T00:17:45;9.52;;;6.43;;
72586;SDS011;60621;49.576;11.024;2023-06-22T00:18:46;9.73;;;6.45;;
72586;SDS011;60621;49.576;11.024;2023-06-22T00:19:48;9.25;;;6.25;;
72586;SDS011;60621;49.576;11.024;2023-06-22T00:20:55;8.82;;;5.65;;
72586;SDS011;60621;49.576;11.024;2023-06-22T00:21:59;11.30;;;6.63;;
72586;SDS011;60621;49.576;11.024;2023-06-22T00:23:01;9.77;;;5.90;;
72586;SDS011;60621;49.576;11.024;2023-06-22T00:24:07;9.25;;;5.82;;
72586;SDS011;60621;49.576;11.024;2023-06-22T00:25:09;9.65;;;5.95;;
72586;SDS011;60621;49.576;11.024;2023-06-22T00:26:11;10.32;;;6.05;;
72586;SDS011;60621;49.576;11.024;2023-06-22T00:27:13;8.45;;;5.70;;
72586;SDS011;60621;49.576;11.024;2023-06-22T00:28:14;10.02;;;6.30;;
72586;SDS011;60621;49.576;11.024;2023-06-22T00:29:16;11.57;;;5.75;;
72586;SDS011;60621;49.576;11.024;2023-06-22T00:30:18;8.15;;;5.63;;
72586;SDS011;60621;49.576;11.024;2023-06-22T00:31:20;10.13;;;6.85;;
72586;SDS011;60621;49.576;11.024;2023-06-22T00:32:22;8.85;;;6.20;;
72586;SDS011;60621;49.576;11.024;2023-06-22T00:33:23;9.48;;;6.50;;
72586;SDS011;60621;49.576;11.024;2023-06-22T00:34:25;10.35;;;6.28;;
72586;SDS011;60621;49.576;11.024;2023-06-22T00:35:27;9.05;;;6.22;;
72586;SDS011;60621;49.576;11.024;2023-06-22T00:36:31;9.88;;;6.13;;
72586;SDS011;60621;49.576;11.024;2023-06-22T00:37:32;9.82;;;6.65;;
72586;SDS011;60621;49.576;11.024;2023-06-22T00:38:34;9.93;;;6.47;;
72586;SDS011;60621;49.576;11.024;2023-06-22T00:39:36;9.88;;;6.68;;
72586;SDS011;60621;49.576;11.024;2023-06-22T00:40:37;10.80;;;5.93;;
72586;SDS011;60621;49.576;11.024;2023-06-22T00:41:39;10.00;;;6.53;;
72586;SDS011;60621;49.576;11.024;2023-06-22T00:42:41;11.65;;;6.85;;
72586;SDS011;60621;49.576;11.024;2023-06-22T00:43:43;9.02;;;5.72;;
72586;SDS011;60621;49.576;11.024;2023-06-22T00:44:44;9.13;;;5.72;;
72586;SDS011;60621;49.576;11.024;2023-06-22T00:45:46;9.43;;;6.03;;
72586;SDS011;60621;49.576;11.024;2023-06-22T00:46:48;8.68;;;5.93;;
72586;SDS011;60621;49.576;11.024;2023-06-22T00:47:50;10.35;;;6.93;;
72586;SDS011;60621;49.576;11.024;2023-06-22T00:48:53;10.70;;;6.70;;
72586;SDS011;60621;49.576;11.024;2023-06-22T00:49:58;12.13;;;6.97;;
72586;SDS011;60621;49.576;11.024;2023-06-22T00:51:00;11.70;;;5.90;;
72586;SDS011;60621;49.576;11.024;2023-06-22T00:52:02;9.50;;;6.00;;
72586;SDS011;60621;49.576;11.024;2023-06-22T00:53:07;10.60;;;6.13;;
72586;SDS011;60621;49.576;11.024;2023-06-22T00:54:11;9.48;;;6.57;;
72586;SDS011;60621;49.576;11.024;2023-06-22T00:55:14;11.63;;;6.97;;
72586;SDS011;60621;49.576;11.024;2023-06-22T00:56:19;11.95;;;6.88;;
72586;SDS011;60621;49.576;11.024;2023-06-22T00:57:21;9.50;;;6.20;;
72586;SDS011;60621;49.576;11.024;2023-06-22T00:58:29;10.48;;;7.03;;
72586;SDS011;60621;49.576;11.024;2023-06-22T00:59:31;10.98;;;6.93;;
72586;SDS011;60621;49.576;11.024;2023-06-22T01:00:33;10.18;;;6.35;;
72586;SDS011;60621;49.576;11.024;2023-06-22T01:01:35;11.38;;;6.80;;
72586;SDS011;60621;49.576;11.024;2023-06-22T01:02:42;10.35;;;6.85;;
72586;SDS011;60621;49.576;11.024;2023-06-22T01:03:46;10.13;;;6.80;;
72586;SDS011;60621;49.576;11.024;2023-06-22T01:04:49;9.85;;;6.05;;
72586;SDS011;60621;49.576;11.024;2023-06-22T01:05:50;10.27;;;5.88;;
72586;SDS011;60621;49.576;11.024;2023-06-22T01:06:59;9.85;;;6.47;;
72586;SDS011;60621;49.576;11.024;2023-06-22T01:08:29;9.63;;;5.70;;
72586;SDS011;60621;49.576;11.024;2023-06-22T01:09:51;9.15;;;5.50;;
72586;SDS011;60621;49.576;11.024;2023-06-22T01:12:22;9.73;;;5.57;;
72586;SDS011;60621;49.576;11.024;2023-06-22T01:15:08;9.70;;;6.57;;
72586;SDS011;60621;49.576;11.024;2023-06-22T01:16:33;9.90;;;5.88;;
72586;SDS011;60621;49.576;11.024;2023-06-22T01:17:36;9.48;;;5.75;;
72586;SDS011;60621;49.576;11.024;2023-06-22T01:18:42;8.57;;;5.97;;
72586;SDS011;60621;49.576;11.024;2023-06-22T01:19:46;10.07;;;6.50;;
72586;SDS011;60621;49.576;11.024;2023-06-22T01:20:49;10.05;;;6.50;;
72586;SDS011;60621;49.576;11.024;2023-06-22T01:21:52;11.02;;;5.95;;
72586;SDS011;60621;49.576;11.024;2023-06-22T01:24:27;9.40;;;6.22;;
72586;SDS011;60621;49.576;11.024;2023-06-22T01:26:25;11.27;;;6.65;;
72586;SDS011;60621;49.576;11.024;2023-06-22T01:28:42;9.55;;;6.15;;
72586;SDS011;60621;49.576;11.024;2023-06-22T01:29:50;11.27;;;5.97;;
72586;SDS011;60621;49.576;11.024;2023-06-22T01:31:01;9.68;;;5.78;;
72586;SDS011;60621;49.576;11.024;2023-06-22T01:32:07;9.38;;;6.20;;
72586;SDS011;60621;49.576;11.024;2023-06-22T01:33:10;9.82;;;6.15;;
72586;SDS011;60621;49.576;11.024;2023-06-22T01:34:14;8.88;;;5.35;;
72586;SDS011;60621;49.576;11.024;2023-06-22T01:35:17;10.82;;;6.38;;
72586;SDS011;60621;49.576;11.024;2023-06-22T01:36:22;11.50;;;6.80;;
72586;SDS011;60621;49.576;11.024;2023-06-22T01:37:25;10.00;;;6.38;;
72586;SDS011;60621;49.576;11.024;2023-06-22T01:38:29;9.55;;;6.32;;
72586;SDS011;60621;49.576;11.024;2023-06-22T01:39:31;10.30;;;6.38;;
72586;SDS011;60621;49.576;11.024;2023-06-22T01:40:33;9.45;;;6.22;;
72586;SDS011;60621;49.576;11.024;2023-06-22T01:41:37;11.68;;;6.50;;
72586;SDS011;60621;49.576;11.024;2023-06-22T01:42:41;10.85;;;7.07;;
72586;SDS011;60621;49.576;11.024;2023-06-22T01:43:44;9.73;;;6.25;;
72586;SDS011;60621;49.576;11.024;2023-06-22T01:44:46;11.18;;;6.65;;
72586;SDS011;60621;49.576;11.024;2023-06-22T01:45:48;9.63;;;6.32;;
72586;SDS011;60621;49.576;11.024;2023-06-22T01:46:51;10.35;;;6.63;;
72586;SDS011;60621;49.576;11.024;2023-06-22T01:47:54;10.95;;;6.53;;
72586;SDS011;60621;49.576;11.024;2023-06-22T01:48:57;10.65;;;6.45;;
72586;SDS011;60621;49.576;11.024;2023-06-22T01:49:59;10.57;;;6.55;;
72586;SDS011;60621;49.576;11.024;2023-06-22T01:51:00;12.38;;;6.68;;
72586;SDS011;60621;49.576;11.024;2023-06-22T01:52:03;10.15;;;6.93;;
72586;SDS011;60621;49.576;11.024;2023-06-22T01:53:05;10.93;;;6.95;;
72586;SDS011;60621;49.576;11.024;2023-06-22T01:54:08;10.43;;;6.32;;
72586;SDS011;60621;49.576;11.024;2023-06-22T01:55:09;11.02;;;6.95;;
72586;SDS011;60621;49.576;11.024;2023-06-22T01:56:11;9.70;;;6.47;;
72586;SDS011;60621;49.576;11.024;2023-06-22T01:57:13;10.82;;;6.53;;
72586;SDS011;60621;49.576;11.024;2023-06-22T01:58:15;10.60;;;6.45;;
72586;SDS011;60621;49.576;11.024;2023-06-22T01:59:18;10.57;;;6.35;;
72586;SDS011;60621;49.576;11.024;2023-06-22T02:00:28;11.38;;;6.32;;
72586;SDS011;60621;49.576;11.024;2023-06-22T02:01:36;11.18;;;6.82;;
72586;SDS011;60621;49.576;11.024;2023-06-22T02:04:27;9.75;;;6.20;;
72586;SDS011;60621;49.576;11.024;2023-06-22T02:05:36;10.02;;;6.88;;
72586;SDS011;60621;49.576;11.024;2023-06-22T02:06:44;10.43;;;6.38;;
72586;SDS011;60621;49.576;11.024;2023-06-22T02:08:09;11.02;;;6.75;;
72586;SDS011;60621;49.576;11.024;2023-06-22T02:09:17;10.88;;;7.00;;
72586;SDS011;60621;49.576;11.024;2023-06-22T02:10:22;11.43;;;6.85;;
72586;SDS011;60621;49.576;11.024;2023-06-22T02:11:25;10.40;;;6.57;;
72586;SDS011;60621;49.576;11.024;2023-06-22T02:12:29;10.20;;;6.85;;
72586;SDS011;60621;49.576;11.024;2023-06-22T02:13:32;10.70;;;6.93;;
72586;SDS011;60621;49.576;11.024;2023-06-22T02:14:34;11.32;;;6.43;;
72586;SDS011;60621;49.576;11.024;2023-06-22T02:15:37;9.77;;;6.35;;
72586;SDS011;60621;49.576;11.024;2023-06-22T02:16:40;10.98;;;7.40;;
72586;SDS011;60621;49.576;11.024;2023-06-22T02:17:43;9.50;;;6.90;;
72586;SDS011;60621;49.576;11.024;2023-06-22T02:18:47;10.27;;;6.40;;
72586;SDS011;60621;49.576;11.024;2023-06-22T02:19:52;11.63;;;6.82;;
72586;SDS011;60621;49.576;11.024;2023-06-22T02:20:53;9.35;;;5.68;;
72586;SDS011;60621;49.576;11.024;2023-06-22T02:21:55;9.93;;;6.97;;
72586;SDS011;60621;49.576;11.024;2023-06-22T02:22:56;10.40;;;6.82;;
72586;SDS011;60621;49.576;11.024;2023-06-22T02:23:58;9.68;;;6.50;;
72586;SDS011;60621;49.576;11.024;2023-06-22T02:25:00;10.18;;;6.00;;
72586;SDS011;60621;49.576;11.024;2023-06-22T02:26:02;9.82;;;6.53;;
72586;SDS011;60621;49.576;11.024;2023-06-22T02:28:08;10.75;;;6.68;;
72586;SDS011;60621;49.576;11.024;2023-06-22T02:29:09;10.52;;;6.38;;
72586;SDS011;60621;49.576;11.024;2023-06-22T02:30:11;9.23;;;6.05;;
72586;SDS011;60621;49.576;11.024;2023-06-22T02:31:13;10.45;;;6.38;;
72586;SDS011;60621;49.576;11.024;2023-06-22T02:32:15;10.70;;;6.30;;
72586;SDS011;60621;49.576;11.024;2023-06-22T02:33:18;9.25;;;5.85;;
72586;SDS011;60621;49.576;11.024;2023-06-22T02:34:21;10.25;;;7.00;;
72586;SDS011;60621;49.576;11.024;2023-06-22T02:35:23;11.05;;;7.30;;
72586;SDS011;60621;49.576;11.024;2023-06-22T02:36:26;10.75;;;6.82;;
72586;SDS011;60621;49.576;11.024;2023-06-22T02:37:28;11.02;;;6.72;;
72586;SDS011;60621;49.576;11.024;2023-06-22T02:38:31;10.40;;;6.53;;
72586;SDS011;60621;49.576;11.024;2023-06-22T02:39:36;10.75;;;7.03;;
72586;SDS011;60621;49.576;11.024;2023-06-22T02:40:38;11.23;;;7.30;;
72586;SDS011;60621;49.576;11.024;2023-06-22T02:41:39;11.32;;;6.35;;
72586;SDS011;60621;49.576;11.024;2023-06-22T02:42:41;10.40;;;7.18;;
72586;SDS011;60621;49.576;11.024;2023-06-22T02:43:43;11.95;;;7.05;;
72586;SDS011;60621;49.576;11.024;2023-06-22T02:44:47;10.40;;;6.93;;
72586;SDS011;60621;49.576;11.024;2023-06-22T02:45:49;12.35;;;7.53;;
72586;SDS011;60621;49.576;11.024;2023-06-22T02:46:51;10.57;;;7.38;;
72586;SDS011;60621;49.576;11.024;2023-06-22T02:47:52;12.68;;;7.72;;
72586;SDS011;60621;49.576;11.024;2023-06-22T02:48:54;12.23;;;7.78;;
72586;SDS011;60621;49.576;11.024;2023-06-22T02:49:55;11.65;;;7.57;;
72586;SDS011;60621;49.576;11.024;2023-06-22T02:50:57;12.05;;;7.80;;
72586;SDS011;60621;49.576;11.024;2023-06-22T02:51:58;14.13;;;8.13;;
72586;SDS011;60621;49.576;11.024;2023-06-22T02:53:00;13.95;;;7.97;;
72586;SDS011;60621;49.576;11.024;2023-06-22T02:54:02;12.73;;;8.15;;
72586;SDS011;60621;49.576;11.024;2023-06-22T02:55:03;13.98;;;9.23;;
72586;SDS011;60621;49.576;11.024;2023-06-22T02:56:05;12.52;;;8.30;;
72586;SDS011;60621;49.576;11.024;2023-06-22T02:57:07;14.63;;;7.47;;
72586;SDS011;60621;49.576;11.024;2023-06-22T02:58:15;11.00;;;7.70;;
72586;SDS011;60621;49.576;11.024;2023-06-22T02:59:17;11.23;;;7.88;;
72586;SDS011;60621;49.576;11.024;2023-06-22T03:00:22;13.48;;;8.43;;
72586;SDS011;60621;49.576;11.024;2023-06-22T03:01:24;12.65;;;7.75;;
72586;SDS011;60621;49.576;11.024;2023-06-22T03:02:26;12.98;;;7.88;;
72586;SDS011;60621;49.576;11.024;2023-06-22T03:03:29;11.90;;;7.45;;
72586;SDS011;60621;49.576;11.024;2023-06-22T03:04:30;12.50;;;8.13;;
72586;SDS011;60621;49.576;11.024;2023-06-22T03:05:32;11.07;;;7.38;;
72586;SDS011;60621;49.576;11.024;2023-06-22T03:06:36;11.20;;;7.78;;
72586;SDS011;60621;49.576;11.024;2023-06-22T03:07:37;12.57;;;7.75;;
72586;SDS011;60621;49.576;11.024;2023-06-22T03:08:39;11.95;;;7.43;;
72586;SDS011;60621;49.576;11.024;2023-06-22T03:09:42;12.98;;;7.60;;
72586;SDS011;60621;49.576;11.024;2023-06-22T03:10:44;11.82;;;7.65;;
72586;SDS011;60621;49.576;11.024;2023-06-22T03:11:45;12.00;;;7.80;;
72586;SDS011;60621;49.576;11.024;2023-06-22T03:12:47;10.85;;;7.40;;
72586;SDS011;60621;49.576;11.024;2023-06-22T03:13:49;11.77;;;8.05;;
72586;SDS011;60621;49.576;11.024;2023-06-22T03:14:53;11.43;;;7.72;;
72586;SDS011;60621;49.576;11.024;2023-06-22T03:15:54;10.98;;;7.18;;
72586;SDS011;60621;49.576;11.024;2023-06-22T03:16:57;12.82;;;8.07;;
72586;SDS011;60621;49.576;11.024;2023-06-22T03:18:03;13.32;;;8.02;;
72586;SDS011;60621;49.576;11.024;2023-06-22T03:19:04;11.55;;;7.95;;
72586;SDS011;60621;49.576;11.024;2023-06-22T03:20:06;12.65;;;7.65;;
72586;SDS011;60621;49.576;11.024;2023-06-22T03:21:13;10.90;;;7.40;;
72586;SDS011;60621;49.576;11.024;2023-06-22T03:22:16;13.68;;;8.05;;
72586;SDS011;60621;49.576;11.024;2023-06-22T03:23:18;12.38;;;8.13;;
72586;SDS011;60621;49.576;11.024;2023-06-22T03:24:19;11.07;;;7.80;;
72586;SDS011;60621;49.576;11.024;2023-06-22T03:25:21;11.43;;;7.75;;
72586;SDS011;60621;49.576;11.024;2023-06-22T03:26:23;10.55;;;7.60;;
72586;SDS011;60621;49.576;11.024;2023-06-22T03:27:28;11.77;;;7.88;;
72586;SDS011;60621;49.576;11.024;2023-06-22T03:28:30;11.10;;;7.90;;
72586;SDS011;60621;49.576;11.024;2023-06-22T03:29:31;11.25;;;7.47;;
72586;SDS011;60621;49.576;11.024;2023-06-22T03:30:33;11.73;;;8.15;;
72586;SDS011;60621;49.576;11.024;2023-06-22T03:31:35;12.57;;;8.35;;
72586;SDS011;60621;49.576;11.024;2023-06-22T03:32:36;12.77;;;8.63;;
72586;SDS011;60621;49.576;11.024;2023-06-22T03:33:38;11.45;;;8.35;;
72586;SDS011;60621;49.576;11.024;2023-06-22T03:34:39;11.27;;;8.13;;
72586;SDS011;60621;49.576;11.024;2023-06-22T03:35:41;11.77;;;8.25;;
72586;SDS011;60621;49.576;11.024;2023-06-22T03:36:43;11.80;;;8.05;;
72586;SDS011;60621;49.576;11.024;2023-06-22T03:37:46;11.50;;;7.70;;
72586;SDS011;60621;49.576;11.024;2023-06-22T03:38:48;11.48;;;8.20;;
72586;SDS011;60621;49.576;11.024;2023-06-22T03:39:51;10.80;;;7.60;;
72586;SDS011;60621;49.576;11.024;2023-06-22T03:40:53;13.30;;;7.57;;
72586;SDS011;60621;49.576;11.024;2023-06-22T03:41:54;12.68;;;8.38;;
72586;SDS011;60621;49.576;11.024;2023-06-22T03:42:56;10.25;;;7.88;;
72586;SDS011;60621;49.576;11.024;2023-06-22T03:43:57;10.70;;;7.95;;
72586;SDS011;60621;49.576;11.024;2023-06-22T03:44:59;12.48;;;8.20;;
72586;SDS011;60621;49.576;11.024;2023-06-22T03:46:02;11.15;;;7.65;;
72586;SDS011;60621;49.576;11.024;2023-06-22T03:47:04;13.93;;;8.25;;
72586;SDS011;60621;49.576;11.024;2023-06-22T03:48:05;13.07;;;7.80;;
72586;SDS011;60621;49.576;11.024;2023-06-22T03:49:07;9.98;;;7.28;;
72586;SDS011;60621;49.576;11.024;2023-06-22T03:50:11;11.73;;;7.68;;
72586;SDS011;60621;49.576;11.024;2023-06-22T03:51:13;12.07;;;7.03;;
72586;SDS011;60621;49.576;11.024;2023-06-22T03:52:14;12.82;;;7.72;;
72586;SDS011;60621;49.576;11.024;2023-06-22T03:53:16;10.68;;;7.47;;
72586;SDS011;60621;49.576;11.024;2023-06-22T03:54:18;11.20;;;8.13;;
72586;SDS011;60621;49.576;11.024;2023-06-22T03:55:19;12.20;;;8.35;;
72586;SDS011;60621;49.576;11.024;2023-06-22T03:56:21;11.32;;;7.50;;
72586;SDS011;60621;49.576;11.024;2023-06-22T03:57:23;10.90;;;7.38;;
72586;SDS011;60621;49.576;11.024;2023-06-22T03:58:24;11.25;;;7.53;;
72586;SDS011;60621;49.576;11.024;2023-06-22T03:59:26;12.90;;;8.25;;
72586;SDS011;60621;49.576;11.024;2023-06-22T04:00:28;13.68;;;8.48;;
72586;SDS011;60621;49.576;11.024;2023-06-22T04:01:30;11.38;;;7.93;;
72586;SDS011;60621;49.576;11.024;2023-06-22T04:02:31;12.20;;;8.57;;
72586;SDS011;60621;49.576;11.024;2023-06-22T04:03:33;13.75;;;8.35;;
72586;SDS011;60621;49.576;11.024;2023-06-22T04:04:35;11.80;;;8.55;;
72586;SDS011;60621;49.576;11.024;2023-06-22T04:05:38;11.82;;;8.60;;
72586;SDS011;60621;49.576;11.024;2023-06-22T04:07:41;14.70;;;9.40;;
72586;SDS011;60621;49.576;11.024;2023-06-22T04:08:44;13.98;;;8.48;;
72586;SDS011;60621;49.576;11.024;2023-06-22T04:09:49;13.73;;;9.20;;
72586;SDS011;60621;49.576;11.024;2023-06-22T04:10:51;14.18;;;9.05;;
72586;SDS011;60621;49.576;11.024;2023-06-22T04:11:52;12.98;;;9.00;;
72586;SDS011;60621;49.576;11.024;2023-06-22T04:12:54;13.07;;;8.63;;
72586;SDS011;60621;49.576;11.024;2023-06-22T04:13:55;14.88;;;8.73;;
72586;SDS011;60621;49.576;11.024;2023-06-22T04:14:57;11.68;;;8.32;;
72586;SDS011;60621;49.576;11.024;2023-06-22T04:15:59;11.20;;;7.60;;
72586;SDS011;60621;49.576;11.024;2023-06-22T04:17:02;11.50;;;8.43;;
72586;SDS011;60621;49.576;11.024;2023-06-22T04:18:04;10.63;;;7.93;;
72586;SDS011;60621;49.576;11.024;2023-06-22T04:19:05;11.68;;;8.50;;
72586;SDS011;60621;49.576;11.024;2023-06-22T04:20:07;12.35;;;8.15;;
72586;SDS011;60621;49.576;11.024;2023-06-22T04:21:09;10.90;;;7.68;;
72586;SDS011;60621;49.576;11.024;2023-06-22T04:22:11;13.13;;;8.45;;
72586;SDS011;60621;49.576;11.024;2023-06-22T04:23:13;12.48;;;8.00;;
72586;SDS011;60621;49.576;11.024;2023-06-22T04:24:14;11.73;;;8.13;;
72586;SDS011;60621;49.576;11.024;2023-06-22T04:25:16;11.73;;;8.48;;
72586;SDS011;60621;49.576;11.024;2023-06-22T04:26:18;13.73;;;8.00;;
72586;SDS011;60621;49.576;11.024;2023-06-22T04:27:22;11.45;;;7.35;;
72586;SDS011;60621;49.576;11.024;2023-06-22T04:28:24;11.80;;;8.10;;
72586;SDS011;60621;49.576;11.024;2023-06-22T04:29:31;12.80;;;8.48;;
72586;SDS011;60621;49.576;11.024;2023-06-22T04:30:33;12.55;;;8.13;;
72586;SDS011;60621;49.576;11.024;2023-06-22T04:31:35;10.45;;;7.85;;
72586;SDS011;60621;49.576;11.024;2023-06-22T04:32:40;11.80;;;8.10;;
72586;SDS011;60621;49.576;11.024;2023-06-22T04:33:42;11.27;;;8.30;;
72586;SDS011;60621;49.576;11.024;2023-06-22T04:34:44;12.32;;;8.65;;
72586;SDS011;60621;49.576;11.024;2023-06-22T04:35:45;10.45;;;7.65;;
72586;SDS011;60621;49.576;11.024;2023-06-22T04:36:47;10.65;;;7.55;;
72586;SDS011;60621;49.576;11.024;2023-06-22T04:37:49;13.70;;;7.82;;
72586;SDS011;60621;49.576;11.024;2023-06-22T04:38:51;12.25;;;7.65;;
72586;SDS011;60621;49.576;11.024;2023-06-22T04:39:54;12.30;;;7.55;;
72586;SDS011;60621;49.576;11.024;2023-06-22T04:40:55;10.50;;;7.60;;
72586;SDS011;60621;49.576;11.024;2023-06-22T04:41:57;12.02;;;7.38;;
72586;SDS011;60621;49.576;11.024;2023-06-22T04:43:01;12.45;;;7.90;;
72586;SDS011;60621;49.576;11.024;2023-06-22T04:44:03;11.48;;;7.70;;
72586;SDS011;60621;49.576;11.024;2023-06-22T04:45:06;11.35;;;7.88;;
72586;SDS011;60621;49.576;11.024;2023-06-22T04:46:08;12.10;;;8.32;;
72586;SDS011;60621;49.576;11.024;2023-06-22T04:47:10;11.98;;;8.05;;
72586;SDS011;60621;49.576;11.024;2023-06-22T04:48:11;12.10;;;8.27;;
72586;SDS011;60621;49.576;11.024;2023-06-22T04:49:17;10.60;;;7.25;;
72586;SDS011;60621;49.576;11.024;2023-06-22T04:50:19;11.23;;;7.78;;
72586;SDS011;60621;49.576;11.024;2023-06-22T04:51:22;10.82;;;7.75;;
72586;SDS011;60621;49.576;11.024;2023-06-22T04:52:23;11.57;;;8.23;;
72586;SDS011;60621;49.576;11.024;2023-06-22T04:53:26;12.13;;;8.07;;
72586;SDS011;60621;49.576;11.024;2023-06-22T04:54:31;11.02;;;7.65;;
72586;SDS011;60621;49.576;11.024;2023-06-22T04:55:35;11.05;;;7.68;;
72586;SDS011;60621;49.576;11.024;2023-06-22T04:56:39;13.18;;;7.85;;
72586;SDS011;60621;49.576;11.024;2023-06-22T04:57:42;11.00;;;7.72;;
72586;SDS011;60621;49.576;11.024;2023-06-22T04:58:49;12.82;;;7.88;;
72586;SDS011;60621;49.576;11.024;2023-06-22T04:59:52;10.00;;;7.47;;
72586;SDS011;60621;49.576;11.024;2023-06-22T05:00:54;12.02;;;7.95;;
72586;SDS011;60621;49.576;11.024;2023-06-22T05:01:58;11.50;;;7.00;;
72586;SDS011;60621;49.576;11.024;2023-06-22T05:03:01;12.02;;;8.18;;
72586;SDS011;60621;49.576;11.024;2023-06-22T05:04:19;10.60;;;7.40;;
72586;SDS011;60621;49.576;11.024;2023-06-22T05:05:22;10.85;;;7.53;;
72586;SDS011;60621;49.576;11.024;2023-06-22T05:06:24;11.38;;;7.60;;
72586;SDS011;60621;49.576;11.024;2023-06-22T05:07:26;11.20;;;7.88;;
72586;SDS011;60621;49.576;11.024;2023-06-22T05:08:28;11.88;;;7.72;;
72586;SDS011;60621;49.576;11.024;2023-06-22T05:09:30;11.95;;;7.68;;
72586;SDS011;60621;49.576;11.024;2023-06-22T05:10:32;10.68;;;7.80;;
72586;SDS011;60621;49.576;11.024;2023-06-22T05:11:34;11.77;;;7.50;;
72586;SDS011;60621;49.576;11.024;2023-06-22T05:12:36;10.27;;;7.57;;
72586;SDS011;60621;49.576;11.024;2023-06-22T05:13:38;10.85;;;7.80;;
72586;SDS011;60621;49.576;11.024;2023-06-22T05:14:39;11.30;;;7.63;;
72586;SDS011;60621;49.576;11.024;2023-06-22T05:15:41;10.30;;;7.22;;
72586;SDS011;60621;49.576;11.024;2023-06-22T05:16:43;10.15;;;7.50;;
72586;SDS011;60621;49.576;11.024;2023-06-22T05:17:45;11.48;;;6.88;;
72586;SDS011;60621;49.576;11.024;2023-06-22T05:18:47;11.73;;;7.03;;
72586;SDS011;60621;49.576;11.024;2023-06-22T05:19:49;10.23;;;6.65;;
72586;SDS011;60621;49.576;11.024;2023-06-22T05:20:51;9.57;;;6.68;;
72586;SDS011;60621;49.576;11.024;2023-06-22T05:21:53;10.10;;;7.35;;
72586;SDS011;60621;49.576;11.024;2023-06-22T05:22:54;11.45;;;7.03;;
72586;SDS011;60621;49.576;11.024;2023-06-22T05:23:56;11.88;;;6.95;;
72586;SDS011;60621;49.576;11.024;2023-06-22T05:25:01;10.73;;;7.15;;
72586;SDS011;60621;49.576;11.024;2023-06-22T05:26:03;11.32;;;7.40;;
72586;SDS011;60621;49.576;11.024;2023-06-22T05:27:04;11.10;;;7.38;;
72586;SDS011;60621;49.576;11.024;2023-06-22T05:28:06;11.93;;;7.35;;
72586;SDS011;60621;49.576;11.024;2023-06-22T05:29:11;11.98;;;8.02;;
72586;SDS011;60621;49.576;11.024;2023-06-22T05:30:14;11.52;;;8.13;;
72586;SDS011;60621;49.576;11.024;2023-06-22T05:31:19;11.77;;;7.97;;
72586;SDS011;60621;49.576;11.024;2023-06-22T05:32:21;11.40;;;7.65;;
72586;SDS011;60621;49.576;11.024;2023-06-22T05:33:23;11.05;;;8.13;;
72586;SDS011;60621;49.576;11.024;2023-06-22T05:34:24;10.25;;;7.15;;
72586;SDS011;60621;49.576;11.024;2023-06-22T05:35:26;11.65;;;7.85;;
72586;SDS011;60621;49.576;11.024;2023-06-22T05:36:28;10.93;;;7.35;;
72586;SDS011;60621;49.576;11.024;2023-06-22T05:37:29;10.05;;;7.13;;
72586;SDS011;60621;49.576;11.024;2023-06-22T05:38:31;10.20;;;7.32;;
72586;SDS011;60621;49.576;11.024;2023-06-22T05:39:32;14.05;;;7.55;;
72586;SDS011;60621;49.576;11.024;2023-06-22T05:40:34;11.43;;;7.35;;
72586;SDS011;60621;49.576;11.024;2023-06-22T05:41:36;10.70;;;7.57;;
72586;SDS011;60621;49.576;11.024;2023-06-22T05:42:37;17.38;;;7.90;;
72586;SDS011;60621;49.576;11.024;2023-06-22T05:43:39;11.23;;;7.93;;
72586;SDS011;60621;49.576;11.024;2023-06-22T05:44:41;11.60;;;7.30;;
72586;SDS011;60621;49.576;11.024;2023-06-22T05:45:43;12.88;;;7.88;;
72586;SDS011;60621;49.576;11.024;2023-06-22T05:46:44;10.05;;;6.80;;
72586;SDS011;60621;49.576;11.024;2023-06-22T05:47:47;11.00;;;7.22;;
72586;SDS011;60621;49.576;11.024;2023-06-22T05:48:49;10.93;;;7.85;;
72586;SDS011;60621;49.576;11.024;2023-06-22T05:49:51;13.52;;;8.52;;
72586;SDS011;60621;49.576;11.024;2023-06-22T05:50:53;11.45;;;7.53;;
72586;SDS011;60621;49.576;11.024;2023-06-22T05:51:55;11.13;;;7.70;;
72586;SDS011;60621;49.576;11.024;2023-06-22T05:53:59;10.75;;;7.75;;
72586;SDS011;60621;49.576;11.024;2023-06-22T05:55:01;13.00;;;7.40;;
72586;SDS011;60621;49.576;11.024;2023-06-22T05:56:03;10.20;;;7.50;;
72586;SDS011;60621;49.576;11.024;2023-06-22T05:57:05;11.68;;;7.15;;
72586;SDS011;60621;49.576;11.024;2023-06-22T05:58:07;10.63;;;7.28;;
72586;SDS011;60621;49.576;11.024;2023-06-22T05:59:08;11.20;;;7.18;;
72586;SDS011;60621;49.576;11.024;2023-06-22T06:00:10;12.75;;;7.90;;
72586;SDS011;60621;49.576;11.024;2023-06-22T06:01:13;10.82;;;7.13;;
72586;SDS011;60621;49.576;11.024;2023-06-22T06:02:16;12.70;;;8.02;;
72586;SDS011;60621;49.576;11.024;2023-06-22T06:03:18;12.07;;;7.53;;
72586;SDS011;60621;49.576;11.024;2023-06-22T06:04:20;10.40;;;7.53;;
72586;SDS011;60621;49.576;11.024;2023-06-22T06:05:22;10.85;;;7.60;;
72586;SDS011;60621;49.576;11.024;2023-06-22T06:06:25;10.95;;;7.43;;
72586;SDS011;60621;49.576;11.024;2023-06-22T06:07:29;10.32;;;7.47;;
72586;SDS011;60621;49.576;11.024;2023-06-22T06:08:32;12.65;;;7.55;;
72586;SDS011;60621;49.576;11.024;2023-06-22T06:09:33;10.55;;;7.03;;
72586;SDS011;60621;49.576;11.024;2023-06-22T06:10:35;9.85;;;6.68;;
72586;SDS011;60621;49.576;11.024;2023-06-22T06:11:37;9.90;;;7.35;;
72586;SDS011;60621;49.576;11.024;2023-06-22T06:12:39;9.57;;;6.55;;
72586;SDS011;60621;49.576;11.024;2023-06-22T06:13:40;9.90;;;6.75;;
72586;SDS011;60621;49.576;11.024;2023-06-22T06:14:42;11.48;;;7.18;;
72586;SDS011;60621;49.576;11.024;2023-06-22T06:15:43;10.57;;;7.20;;
72586;SDS011;60621;49.576;11.024;2023-06-22T06:16:45;10.70;;;7.13;;
72586;SDS011;60621;49.576;11.024;2023-06-22T06:17:50;10.15;;;7.18;;
72586;SDS011;60621;49.576;11.024;2023-06-22T06:18:53;11.20;;;7.28;;
72586;SDS011;60621;49.576;11.024;2023-06-22T06:19:58;10.55;;;7.20;;